createdAt,value
2022-12-17T00:00:14.141Z,19.35
2022-12-17T00:02:17.354Z,18.88
2022-12-17T00:04:21.922Z,19.60
2022-12-17T00:06:23.518Z,20.30
2022-12-17T00:08:27.602Z,19.80
2022-12-17T00:10:29.115Z,19.33
2022-12-17T00:12:30.924Z,20.17
2022-12-17T00:16:35.191Z,19.42
2022-12-17T00:18:36.803Z,20.23
2022-12-17T00:20:38.410Z,19.73
2022-12-17T00:22:40.012Z,19.00
2022-12-17T00:24:41.562Z,18.92
2022-12-17T00:26:43.054Z,21.02
2022-12-17T00:28:44.561Z,18.92
2022-12-17T00:30:51.885Z,20.13
2022-12-17T00:32:53.742Z,18.58
2022-12-17T00:34:55.391Z,19.05
2022-12-17T00:36:58.993Z,19.77
2022-12-17T00:39:00.520Z,18.98
2022-12-17T00:41:02.965Z,19.65
2022-12-17T00:43:06.767Z,17.80
2022-12-17T00:45:09.124Z,19.13
2022-12-17T00:47:12.841Z,20.17
2022-12-17T00:49:14.473Z,19.02
2022-12-17T00:51:15.974Z,18.42
2022-12-17T00:53:17.617Z,18.85
2022-12-17T00:55:19.158Z,20.00
2022-12-17T00:57:20.679Z,17.55
2022-12-17T00:59:22.197Z,18.63
2022-12-17T01:01:23.864Z,18.50
2022-12-17T01:05:28.591Z,17.58
2022-12-17T01:07:30.342Z,17.30
2022-12-17T01:11:33.361Z,16.98
2022-12-17T01:13:35.476Z,18.73
2022-12-17T01:15:37.334Z,17.92
2022-12-17T01:17:38.979Z,18.15
2022-12-17T01:19:41.997Z,18.20
2022-12-17T01:21:45.442Z,18.02
2022-12-17T01:23:46.987Z,15.80
2022-12-17T01:25:52.735Z,16.35
2022-12-17T01:27:57.872Z,17.55
2022-12-17T01:30:02.531Z,16.85
2022-12-17T01:32:04.509Z,16.48
2022-12-17T01:34:06.261Z,14.70
2022-12-17T01:36:09.214Z,15.18
2022-12-17T01:38:11.940Z,16.13
2022-12-17T01:40:16.256Z,14.65
2022-12-17T01:42:19.439Z,13.68
2022-12-17T01:44:47.055Z,13.20
2022-12-17T01:46:51.501Z,13.18
2022-12-17T01:48:53.070Z,14.20
2022-12-17T01:50:56.599Z,13.07
2022-12-17T01:53:02.654Z,13.77
2022-12-17T01:55:05.804Z,14.52
2022-12-17T01:57:07.943Z,14.43
2022-12-17T01:59:12.355Z,13.52
2022-12-17T02:01:14.051Z,14.38
2022-12-17T02:05:22.227Z,13.52
2022-12-17T02:07:43.171Z,14.68
2022-12-17T02:09:55.591Z,14.65
2022-12-17T02:12:04.360Z,14.23
2022-12-17T02:14:13.948Z,14.18
2022-12-17T02:16:21.920Z,14.18
2022-12-17T02:18:31.677Z,15.43
2022-12-17T02:20:39.548Z,14.48
2022-12-17T02:22:54.106Z,15.02
2022-12-17T02:25:03.132Z,14.63
2022-12-17T02:27:09.485Z,14.18
2022-12-17T02:29:11.641Z,14.80
2022-12-17T02:31:15.142Z,16.25
2022-12-17T02:33:17.424Z,14.93
2022-12-17T02:35:22.341Z,15.02
2022-12-17T02:37:23.899Z,14.27
2022-12-17T02:39:25.835Z,14.80
2022-12-17T02:41:29.464Z,13.55
2022-12-17T02:43:34.167Z,13.43
2022-12-17T02:45:36.390Z,13.15
2022-12-17T02:47:38.414Z,13.27
2022-12-17T02:49:40.045Z,13.65
2022-12-17T02:51:43.248Z,13.40
2022-12-17T02:53:46.408Z,13.52
2022-12-17T02:55:47.973Z,13.00
2022-12-17T02:57:53.982Z,13.23
2022-12-17T02:59:57.006Z,13.90
2022-12-17T03:01:58.676Z,12.85
2022-12-17T03:06:01.722Z,11.70
2022-12-17T03:08:03.292Z,12.43
2022-12-17T03:10:05.643Z,12.35
2022-12-17T03:12:07.397Z,12.82
2022-12-17T03:16:14.013Z,12.00
2022-12-17T03:18:15.688Z,11.65
2022-12-17T03:20:17.443Z,13.35
2022-12-17T03:24:20.387Z,11.50
2022-12-17T03:26:21.910Z,12.10
2022-12-17T03:28:23.417Z,11.02
2022-12-17T03:30:25.000Z,12.95
2022-12-17T03:32:27.915Z,12.00
2022-12-17T03:34:29.445Z,11.30
2022-12-17T03:36:31.344Z,12.27
2022-12-17T03:38:32.928Z,11.57
2022-12-17T03:40:34.488Z,11.13
2022-12-17T03:42:36.053Z,12.13
2022-12-17T03:44:37.570Z,13.27
2022-12-17T03:46:39.095Z,12.50
2022-12-17T03:48:42.229Z,10.93
2022-12-17T03:50:43.759Z,10.52
2022-12-17T03:52:45.291Z,11.57
2022-12-17T03:54:46.815Z,10.73
2022-12-17T03:56:48.314Z,11.15
2022-12-17T03:58:52.702Z,10.10
2022-12-17T04:00:54.283Z,9.20
2022-12-17T04:02:56.006Z,10.05
2022-12-17T04:04:59.092Z,9.57
2022-12-17T04:07:00.702Z,9.55
2022-12-17T04:09:02.251Z,9.30
2022-12-17T04:11:03.785Z,9.48
2022-12-17T04:13:08.433Z,9.43
2022-12-17T04:15:10.260Z,7.95
2022-12-17T04:17:11.997Z,8.93
2022-12-17T04:21:16.305Z,7.85
2022-12-17T04:23:17.848Z,8.05
2022-12-17T04:25:19.403Z,7.38
2022-12-17T04:27:20.951Z,7.60
2022-12-17T04:29:22.475Z,7.28
2022-12-17T04:31:24.200Z,7.40
2022-12-17T04:35:27.159Z,7.15
2022-12-17T04:37:30.137Z,7.40
2022-12-17T04:39:31.726Z,6.68
2022-12-17T04:41:33.259Z,7.60
2022-12-17T04:43:35.109Z,8.82
2022-12-17T04:45:36.936Z,7.40
2022-12-17T04:47:38.499Z,7.07
2022-12-17T04:49:40.059Z,7.22
2022-12-17T04:51:41.603Z,7.82
2022-12-17T04:53:44.555Z,7.28
2022-12-17T04:55:46.211Z,7.22
2022-12-17T04:57:47.726Z,7.22
2022-12-17T04:59:49.236Z,7.93
2022-12-17T05:01:50.875Z,7.80
2022-12-17T05:03:52.501Z,7.93
2022-12-17T05:05:54.085Z,7.40
2022-12-17T05:07:56.514Z,7.80
2022-12-17T05:09:59.424Z,8.13
2022-12-17T05:12:00.905Z,7.00
2022-12-17T05:14:02.646Z,7.97
2022-12-17T05:18:07.534Z,7.03
2022-12-17T05:20:10.263Z,7.85
2022-12-17T05:22:11.864Z,7.50
2022-12-17T05:24:13.419Z,7.32
2022-12-17T05:26:19.766Z,7.32
2022-12-17T05:28:21.294Z,7.47
2022-12-17T05:30:22.824Z,7.85
2022-12-17T05:32:24.385Z,8.45
2022-12-17T05:34:25.927Z,8.45
2022-12-17T05:36:27.899Z,7.30
2022-12-17T05:38:29.657Z,8.60
2022-12-17T05:42:33.990Z,6.97
2022-12-17T05:44:35.585Z,8.02
2022-12-17T05:46:37.139Z,7.72
2022-12-17T05:48:38.649Z,7.38
2022-12-17T05:50:40.234Z,8.05
2022-12-17T05:52:41.745Z,7.85
2022-12-17T05:54:43.270Z,7.00
2022-12-17T05:56:44.856Z,7.28
2022-12-17T05:58:50.021Z,7.18
2022-12-17T06:00:55.250Z,7.40
2022-12-17T06:02:58.568Z,7.18
2022-12-17T06:05:02.380Z,7.95
2022-12-17T06:07:04.272Z,7.80
2022-12-17T06:09:05.805Z,7.25
2022-12-17T06:11:07.309Z,8.32
2022-12-17T06:13:08.855Z,7.32
2022-12-17T06:15:11.869Z,7.85
2022-12-17T06:17:13.395Z,7.88
2022-12-17T06:19:15.006Z,8.80
2022-12-17T06:21:16.559Z,7.25
2022-12-17T06:23:18.074Z,6.60
2022-12-17T06:25:19.570Z,7.47
2022-12-17T06:27:21.088Z,6.60
2022-12-17T06:29:22.629Z,7.50
2022-12-17T06:31:25.656Z,7.32
2022-12-17T06:33:27.258Z,7.40
2022-12-17T06:35:28.810Z,7.88
2022-12-17T06:37:30.309Z,7.22
2022-12-17T06:39:32.080Z,7.53
2022-12-17T06:43:35.245Z,6.93
2022-12-17T06:45:37.081Z,8.18
2022-12-17T06:47:40.059Z,7.22
2022-12-17T06:49:41.603Z,7.50
2022-12-17T06:51:43.216Z,8.13
2022-12-17T06:53:44.740Z,8.95
2022-12-17T06:55:46.320Z,9.02
2022-12-17T06:57:50.552Z,9.35
2022-12-17T06:59:52.305Z,8.18
2022-12-17T07:01:53.983Z,10.38
2022-12-17T07:06:00.449Z,8.68
2022-12-17T07:08:01.983Z,8.30
2022-12-17T07:10:07.956Z,8.95
2022-12-17T07:12:13.916Z,8.32
2022-12-17T07:16:17.074Z,7.75
2022-12-17T07:20:21.450Z,8.98
2022-12-17T07:22:23.294Z,7.55
2022-12-17T07:24:24.830Z,8.20
2022-12-17T07:26:26.549Z,7.82
2022-12-17T07:30:29.467Z,6.32
2022-12-17T07:32:30.996Z,7.68
2022-12-17T07:34:32.567Z,8.00
2022-12-17T07:36:35.440Z,8.75
2022-12-17T07:38:37.064Z,8.30
2022-12-17T07:40:38.583Z,7.72
2022-12-17T07:42:40.177Z,7.72
2022-12-17T07:44:41.709Z,7.75
2022-12-17T07:46:43.322Z,7.57
2022-12-17T07:48:45.124Z,8.02
2022-12-17T07:53:00.449Z,7.55
2022-12-17T07:55:01.971Z,8.65
2022-12-17T07:57:03.658Z,8.30
2022-12-17T07:59:05.339Z,9.00
2022-12-17T08:01:06.923Z,9.02
2022-12-17T08:03:08.695Z,8.90
2022-12-17T08:07:14.149Z,8.75
2022-12-17T08:09:17.249Z,7.80
2022-12-17T08:11:18.795Z,7.63
2022-12-17T08:13:20.300Z,6.93
2022-12-17T08:15:21.857Z,7.43
2022-12-17T08:17:23.418Z,7.85
2022-12-17T08:19:24.937Z,7.72
2022-12-17T08:21:26.569Z,7.50
2022-12-17T08:23:28.236Z,6.13
2022-12-17T08:25:31.138Z,6.18
2022-12-17T08:27:32.764Z,6.38
2022-12-17T08:29:34.374Z,6.88
2022-12-17T08:31:35.920Z,7.03
2022-12-17T08:33:37.793Z,7.25
2022-12-17T08:35:39.486Z,7.40
2022-12-17T08:37:41.041Z,7.07
2022-12-17T08:39:42.547Z,10.52
2022-12-17T08:41:53.995Z,7.78
2022-12-17T08:43:56.323Z,6.97
2022-12-17T08:45:57.864Z,6.93
2022-12-17T08:48:04.517Z,6.85
2022-12-17T08:50:07.755Z,7.55
2022-12-17T08:52:09.335Z,6.93
2022-12-17T08:54:11.298Z,7.85
2022-12-17T08:56:12.817Z,7.07
2022-12-17T08:58:15.690Z,7.75
2022-12-17T09:00:17.601Z,8.88
2022-12-17T09:02:19.297Z,7.63
2022-12-17T09:04:20.991Z,7.13
2022-12-17T09:06:22.548Z,7.78
2022-12-17T09:08:24.078Z,7.30
2022-12-17T09:10:25.614Z,7.13
2022-12-17T09:12:27.165Z,8.35
2022-12-17T09:14:30.016Z,7.93
2022-12-17T09:16:31.587Z,8.02
2022-12-17T09:18:33.164Z,7.95
2022-12-17T09:20:34.671Z,8.05
2022-12-17T09:22:36.245Z,8.10
2022-12-17T09:24:37.804Z,8.65
2022-12-17T09:26:39.290Z,7.35
2022-12-17T09:28:40.967Z,7.63
2022-12-17T09:30:43.960Z,7.30
2022-12-17T09:32:45.530Z,7.70
2022-12-17T09:34:47.158Z,8.75
2022-12-17T09:36:51.318Z,7.03
2022-12-17T09:38:53.017Z,7.25
2022-12-17T09:40:54.572Z,7.57
2022-12-17T09:43:00.515Z,7.93
2022-12-17T09:45:08.995Z,7.13
2022-12-17T09:47:25.165Z,7.68
2022-12-17T09:49:28.725Z,8.18
2022-12-17T09:51:30.664Z,7.95
2022-12-17T09:53:37.746Z,8.32
2022-12-17T09:55:46.253Z,7.35
2022-12-17T09:57:49.998Z,6.82
2022-12-17T09:59:51.556Z,8.07
2022-12-17T10:01:53.258Z,8.13
2022-12-17T10:03:56.740Z,8.25
2022-12-17T10:06:04.382Z,7.95
2022-12-17T10:08:07.509Z,8.50
2022-12-17T10:10:18.064Z,7.40
2022-12-17T10:12:21.036Z,7.97
2022-12-17T10:14:25.147Z,7.78
2022-12-17T10:16:28.639Z,7.70
2022-12-17T10:18:31.303Z,7.75
2022-12-17T10:20:39.119Z,8.23
2022-12-17T10:22:44.992Z,8.05
2022-12-17T10:24:46.638Z,8.27
2022-12-17T10:26:49.074Z,8.30
2022-12-17T10:28:50.581Z,8.50
2022-12-17T10:30:56.558Z,8.10
2022-12-17T10:32:58.147Z,9.60
2022-12-17T10:35:06.822Z,8.77
2022-12-17T10:37:19.025Z,9.75
2022-12-17T10:39:24.066Z,9.02
2022-12-17T10:41:27.313Z,8.10
2022-12-17T10:43:31.219Z,9.07
2022-12-17T10:45:34.129Z,9.65
2022-12-17T10:47:35.651Z,8.52
2022-12-17T10:49:37.226Z,8.00
2022-12-17T10:51:39.224Z,9.18
2022-12-17T10:53:49.926Z,7.65
2022-12-17T10:55:54.437Z,8.48
2022-12-17T10:58:03.016Z,8.93
2022-12-17T11:00:21.101Z,9.02
2022-12-17T11:02:28.652Z,9.38
2022-12-17T11:04:32.227Z,8.90
2022-12-17T11:06:42.033Z,9.52
2022-12-17T11:08:45.526Z,8.52
2022-12-17T11:10:48.637Z,8.05
2022-12-17T11:12:54.715Z,8.85
2022-12-17T11:15:01.535Z,10.05
2022-12-17T11:17:07.337Z,9.40
2022-12-17T11:19:31.129Z,9.43
2022-12-17T11:21:39.544Z,10.00
2022-12-17T11:23:44.291Z,9.80
2022-12-17T11:25:55.580Z,10.35
2022-12-17T11:28:05.156Z,10.15
2022-12-17T11:30:12.201Z,9.13
2022-12-17T11:32:43.252Z,9.77
2022-12-17T11:35:01.566Z,10.00
2022-12-17T11:37:14.039Z,9.20
2022-12-17T11:39:21.757Z,10.23
2022-12-17T11:41:35.139Z,10.90
2022-12-17T11:43:43.672Z,10.00
2022-12-17T11:45:55.727Z,10.77
2022-12-17T11:48:01.013Z,10.55
2022-12-17T11:50:12.477Z,10.10
2022-12-17T11:52:23.062Z,10.23
2022-12-17T11:54:29.677Z,10.40
2022-12-17T11:56:36.931Z,10.00
2022-12-17T11:58:41.480Z,10.32
2022-12-17T12:00:52.002Z,11.13
2022-12-17T12:03:03.144Z,9.90
2022-12-17T12:05:21.550Z,10.20
2022-12-17T12:07:35.476Z,11.20
2022-12-17T12:09:45.537Z,10.38
2022-12-17T12:11:59.082Z,10.05
2022-12-17T12:14:08.116Z,9.32
2022-12-17T12:16:19.135Z,10.20
2022-12-17T12:18:31.129Z,11.90
2022-12-17T12:20:45.939Z,11.25
2022-12-17T12:22:54.080Z,17.63
2022-12-17T12:27:29.649Z,9.82
2022-12-17T12:29:42.714Z,11.43
2022-12-17T12:31:53.737Z,11.05
2022-12-17T12:33:58.573Z,11.40
2022-12-17T12:36:03.996Z,10.70
2022-12-17T12:38:09.078Z,10.35
2022-12-17T12:40:17.701Z,9.88
2022-12-17T12:42:27.783Z,9.02
2022-12-17T12:44:38.237Z,10.38
2022-12-17T12:46:46.070Z,10.05
2022-12-17T12:48:54.784Z,9.23
2022-12-17T12:51:02.354Z,9.38
2022-12-17T12:53:04.299Z,10.07
2022-12-17T12:55:06.305Z,10.35
2022-12-17T12:57:33.994Z,9.45
2022-12-17T12:59:37.098Z,9.77
2022-12-17T13:01:39.154Z,9.30
2022-12-17T13:03:50.212Z,10.02
2022-12-17T13:05:51.790Z,10.25
2022-12-17T13:08:02.865Z,10.88
2022-12-17T13:10:24.377Z,10.55
2022-12-17T13:12:35.709Z,10.73
2022-12-17T13:14:47.904Z,10.82
2022-12-17T13:16:53.548Z,11.68
2022-12-17T13:19:02.755Z,11.23
2022-12-17T13:21:23.349Z,10.63
2022-12-17T13:23:30.996Z,10.15
2022-12-17T13:25:32.547Z,9.35
2022-12-17T13:27:39.783Z,10.45
2022-12-17T13:29:41.358Z,10.98
2022-12-17T13:31:56.691Z,10.38
2022-12-17T13:34:07.905Z,10.00
2022-12-17T13:36:17.757Z,9.82
2022-12-17T13:38:26.775Z,9.93
2022-12-17T13:40:38.764Z,10.15
2022-12-17T13:42:45.617Z,9.82
2022-12-17T13:44:47.177Z,9.45
2022-12-17T13:46:50.445Z,9.65
2022-12-17T13:48:54.171Z,11.60
2022-12-17T13:50:57.297Z,9.45
2022-12-17T13:53:11.346Z,10.05
2022-12-17T13:55:19.169Z,10.02
2022-12-17T13:57:22.541Z,9.63
2022-12-17T13:59:25.469Z,10.80
2022-12-17T14:01:27.361Z,10.18
2022-12-17T14:05:50.295Z,10.93
2022-12-17T14:07:52.652Z,9.95
2022-12-17T14:09:55.488Z,9.85
2022-12-17T14:11:57.154Z,9.95
2022-12-17T14:13:58.998Z,9.85
2022-12-17T14:16:01.951Z,10.32
2022-12-17T14:18:04.608Z,10.15
2022-12-17T14:20:11.133Z,10.45
2022-12-17T14:22:19.568Z,11.35
2022-12-17T14:24:23.267Z,10.10
2022-12-17T14:26:25.395Z,10.00
2022-12-17T14:28:31.195Z,10.57
2022-12-17T14:30:42.946Z,10.35
2022-12-17T14:32:54.111Z,10.88
2022-12-17T14:35:00.368Z,10.07
2022-12-17T14:37:02.566Z,10.27
2022-12-17T14:39:15.001Z,12.02
2022-12-17T14:41:16.735Z,10.32
2022-12-17T14:45:26.928Z,9.10
2022-12-17T14:47:30.371Z,10.30
2022-12-17T14:49:33.383Z,10.10
2022-12-17T14:51:36.856Z,10.60
2022-12-17T14:53:38.401Z,9.50
2022-12-17T14:55:55.420Z,10.45
2022-12-17T14:58:18.759Z,10.07
2022-12-17T15:00:20.962Z,9.68
2022-12-17T15:02:25.915Z,10.52
2022-12-17T15:04:27.707Z,10.18
2022-12-17T15:06:30.672Z,10.18
2022-12-17T15:08:34.992Z,10.75
2022-12-17T15:10:36.831Z,10.65
2022-12-17T15:12:41.795Z,10.52
2022-12-17T15:14:43.344Z,11.05
2022-12-17T15:16:44.999Z,11.32
2022-12-17T15:18:46.577Z,10.30
2022-12-17T15:20:48.298Z,11.38
2022-12-17T15:24:52.703Z,9.75
2022-12-17T15:26:54.402Z,10.38
2022-12-17T15:30:57.371Z,9.27
2022-12-17T15:32:59.072Z,11.57
2022-12-17T15:35:00.586Z,11.02
2022-12-17T15:37:02.124Z,10.23
2022-12-17T15:39:05.159Z,10.68
2022-12-17T15:41:07.448Z,10.73
2022-12-17T15:43:10.702Z,11.27
2022-12-17T15:45:12.459Z,10.38
2022-12-17T15:49:17.934Z,10.10
2022-12-17T15:51:20.052Z,10.68
2022-12-17T15:53:21.678Z,11.23
2022-12-17T15:55:24.731Z,11.38
2022-12-17T15:57:26.376Z,9.90
2022-12-17T15:59:27.905Z,11.27
2022-12-17T16:01:29.627Z,10.80
2022-12-17T16:05:33.180Z,10.05
2022-12-17T16:07:34.983Z,10.00
2022-12-17T16:11:40.390Z,10.02
2022-12-17T16:13:42.228Z,10.63
2022-12-17T16:15:43.822Z,9.43
2022-12-17T16:17:45.444Z,9.43
2022-12-17T16:19:47.048Z,9.95
2022-12-17T16:21:48.996Z,10.60
2022-12-17T16:23:50.619Z,10.82
2022-12-17T16:25:56.453Z,10.50
2022-12-17T16:27:59.481Z,10.18
2022-12-17T16:30:01.355Z,10.27
2022-12-17T16:32:03.894Z,10.55
2022-12-17T16:34:08.322Z,10.95
2022-12-17T16:36:13.238Z,10.15
2022-12-17T16:38:14.781Z,10.02
2022-12-17T16:40:16.529Z,9.75
2022-12-17T16:44:20.824Z,9.00
2022-12-17T16:46:28.114Z,8.43
2022-12-17T16:48:36.000Z,9.43
2022-12-17T16:50:37.885Z,9.27
2022-12-17T16:52:39.459Z,9.15
2022-12-17T16:54:41.202Z,9.02
2022-12-17T16:58:45.410Z,8.43
2022-12-17T17:00:53.884Z,8.00
2022-12-17T17:02:55.623Z,8.52
2022-12-17T17:06:58.692Z,8.63
2022-12-17T17:09:03.415Z,8.65
2022-12-17T17:11:09.873Z,8.90
2022-12-17T17:13:11.488Z,8.95
2022-12-17T17:15:13.030Z,9.48
2022-12-17T17:17:15.960Z,10.68
2022-12-17T17:19:18.009Z,9.63
2022-12-17T17:21:25.574Z,9.68
2022-12-17T17:23:27.149Z,9.57
2022-12-17T17:25:50.225Z,10.15
2022-12-17T17:27:50.525Z,9.65
2022-12-17T17:29:52.131Z,9.40
2022-12-17T17:32:09.822Z,9.07
2022-12-17T17:34:14.999Z,9.65
2022-12-17T17:36:18.569Z,9.63
2022-12-17T17:38:20.141Z,9.60
2022-12-17T17:40:21.731Z,9.98
2022-12-17T17:42:23.384Z,9.80
2022-12-17T17:44:24.947Z,10.23
2022-12-17T17:46:28.005Z,9.40
2022-12-17T17:48:31.227Z,9.85
2022-12-17T17:50:34.136Z,9.98
2022-12-17T17:52:35.662Z,9.15
2022-12-17T17:54:37.511Z,8.77
2022-12-17T17:56:40.680Z,8.48
2022-12-17T17:58:42.918Z,9.02
2022-12-17T18:00:44.511Z,8.93
2022-12-17T18:02:46.278Z,9.82
2022-12-17T18:04:48.008Z,8.88
2022-12-17T18:09:13.488Z,8.48
2022-12-17T18:11:21.582Z,9.23
2022-12-17T18:13:25.119Z,8.32
2022-12-17T18:15:26.696Z,8.70
2022-12-17T18:17:28.228Z,7.95
2022-12-17T18:19:30.045Z,8.65
2022-12-17T18:23:34.676Z,7.60
2022-12-17T18:25:37.906Z,8.55
2022-12-17T18:27:39.803Z,8.27
2022-12-17T18:31:48.520Z,7.85
2022-12-17T18:33:55.778Z,8.30
2022-12-17T18:35:57.423Z,8.18
2022-12-17T18:37:58.993Z,7.80
2022-12-17T18:40:01.894Z,9.40
2022-12-17T18:42:03.586Z,8.23
2022-12-17T18:44:06.445Z,8.68
2022-12-17T18:46:07.992Z,8.52
2022-12-17T18:48:09.552Z,8.02
2022-12-17T18:50:11.916Z,8.32
2022-12-17T18:52:17.019Z,7.85
2022-12-17T18:54:22.104Z,8.00
2022-12-17T18:56:52.581Z,7.75
2022-12-17T18:58:46.893Z,7.03
2022-12-17T19:00:48.498Z,13.75
2022-12-17T19:02:50.122Z,7.10
2022-12-17T19:04:51.776Z,7.53
2022-12-17T19:06:54.034Z,7.80
2022-12-17T19:08:55.619Z,7.55
2022-12-17T19:11:03.877Z,7.25
2022-12-17T19:13:06.883Z,7.57
2022-12-17T19:15:09.345Z,7.60
2022-12-17T19:17:10.888Z,8.15
2022-12-17T19:19:13.544Z,7.38
2022-12-17T19:21:15.128Z,7.10
2022-12-17T19:23:16.673Z,6.95
2022-12-17T19:25:18.325Z,7.07
2022-12-17T19:27:19.900Z,7.13
2022-12-17T19:29:23.009Z,8.60
2022-12-17T19:31:26.784Z,7.35
2022-12-17T19:33:28.410Z,8.07
2022-12-17T19:35:29.936Z,7.35
2022-12-17T19:37:31.458Z,6.88
2022-12-17T19:39:33.075Z,8.18
2022-12-17T19:41:35.182Z,8.63
2022-12-17T19:43:37.592Z,8.15
2022-12-17T19:45:40.617Z,7.60
2022-12-17T19:47:42.268Z,8.00
2022-12-17T19:49:43.905Z,6.93
2022-12-17T19:51:45.534Z,7.32
2022-12-17T19:53:48.132Z,8.10
2022-12-17T19:55:49.683Z,8.48
2022-12-17T19:57:51.523Z,7.15
2022-12-17T20:01:55.956Z,7.45
2022-12-17T20:03:58.705Z,8.93
2022-12-17T20:06:00.237Z,8.35
2022-12-17T20:08:01.838Z,8.52
2022-12-17T20:10:04.149Z,8.23
2022-12-17T20:12:06.390Z,7.32
2022-12-17T20:14:11.401Z,8.38
2022-12-17T20:16:14.489Z,7.75
2022-12-17T20:18:17.680Z,9.07
2022-12-17T20:20:19.324Z,8.30
2022-12-17T20:22:20.966Z,7.22
2022-12-17T20:24:30.321Z,6.70
2022-12-17T20:26:33.377Z,6.43
2022-12-17T20:28:35.071Z,6.22
2022-12-17T20:30:38.891Z,7.05
2022-12-17T20:32:40.454Z,7.80
2022-12-17T20:34:43.493Z,7.15
2022-12-17T20:36:45.052Z,8.20
2022-12-17T20:38:46.775Z,7.20
2022-12-17T20:40:48.779Z,6.57
2022-12-17T20:42:51.365Z,6.93
2022-12-17T20:44:53.670Z,7.65
2022-12-17T20:46:55.347Z,7.88
2022-12-17T20:48:58.488Z,7.43
2022-12-17T20:51:04.898Z,7.22
2022-12-17T20:53:06.919Z,7.82
2022-12-17T20:55:09.037Z,7.50
2022-12-17T20:57:10.801Z,7.57
2022-12-17T21:01:17.849Z,7.28
2022-12-17T21:03:19.441Z,7.03
2022-12-17T21:05:21.051Z,7.20
2022-12-17T21:07:24.052Z,7.50
2022-12-17T21:09:25.715Z,6.78
2022-12-17T21:11:28.895Z,6.90
2022-12-17T21:13:30.423Z,7.45
2022-12-17T21:15:32.012Z,6.82
2022-12-17T21:17:33.737Z,7.15
2022-12-17T21:21:37.953Z,6.70
2022-12-17T21:23:41.183Z,6.72
2022-12-17T21:25:42.761Z,7.25
2022-12-17T21:27:44.351Z,6.88
2022-12-17T21:29:45.928Z,8.18
2022-12-17T21:31:49.719Z,7.47
2022-12-17T21:33:52.626Z,7.47
2022-12-17T21:35:59.183Z,7.07
2022-12-17T21:38:00.699Z,7.32
2022-12-17T21:40:04.248Z,7.95
2022-12-17T21:42:06.089Z,7.65
2022-12-17T21:44:11.213Z,8.75
2022-12-17T21:46:14.045Z,7.97
2022-12-17T21:48:15.700Z,7.68
2022-12-17T21:50:17.394Z,7.45
2022-12-17T21:52:19.162Z,7.50
2022-12-17T21:56:24.303Z,6.53
2022-12-17T21:58:26.232Z,7.15
2022-12-17T22:00:28.019Z,6.75
2022-12-17T22:04:31.352Z,6.25
2022-12-17T22:06:41.122Z,7.40
2022-12-17T22:08:48.641Z,6.57
2022-12-17T22:10:51.635Z,6.47
2022-12-17T22:12:55.047Z,6.40
2022-12-17T22:14:56.584Z,7.13
2022-12-17T22:16:58.545Z,7.63
2022-12-17T22:19:01.392Z,7.00
2022-12-17T22:21:03.674Z,7.28
2022-12-17T22:23:05.247Z,7.28
2022-12-17T22:27:12.946Z,7.78
2022-12-17T22:29:16.652Z,7.30
2022-12-17T22:31:19.643Z,6.43
2022-12-17T22:33:52.173Z,7.78
2022-12-17T22:37:04.921Z,6.05
2022-12-17T22:41:59.409Z,7.05
2022-12-17T22:44:34.163Z,7.15
2022-12-17T22:44:39.222Z,6.75
2022-12-17T22:45:13.559Z,7.55
2022-12-17T22:47:15.604Z,7.97
2022-12-17T22:49:17.746Z,10.38
2022-12-17T22:51:24.707Z,8.45
2022-12-17T22:53:30.449Z,7.60
2022-12-17T22:55:34.457Z,8.57
2022-12-17T22:57:38.525Z,7.15
2022-12-17T22:59:40.754Z,7.60
2022-12-17T23:01:43.814Z,8.07
2022-12-17T23:03:45.713Z,7.80
2022-12-17T23:05:47.381Z,6.85
2022-12-17T23:07:49.642Z,7.40
2022-12-17T23:09:51.256Z,7.22
2022-12-17T23:11:52.810Z,7.18
2022-12-17T23:13:55.029Z,7.20
2022-12-17T23:15:56.760Z,7.45
2022-12-17T23:20:01.823Z,6.93
2022-12-17T23:22:03.360Z,7.97
2022-12-17T23:24:05.453Z,6.43
2022-12-17T23:26:08.113Z,7.10
2022-12-17T23:28:09.697Z,7.18
2022-12-17T23:30:12.697Z,8.05
2022-12-17T23:32:14.245Z,7.10
2022-12-17T23:34:17.264Z,7.93
2022-12-17T23:36:20.512Z,7.47
2022-12-17T23:38:22.014Z,7.50
2022-12-17T23:40:23.722Z,7.32
2022-12-17T23:42:25.274Z,7.72
2022-12-17T23:44:26.936Z,9.02
2022-12-17T23:46:29.891Z,8.35
2022-12-17T23:48:33.664Z,8.30
2022-12-17T23:50:36.561Z,8.25
2022-12-17T23:52:38.503Z,8.10
2022-12-17T23:54:45.905Z,8.80
2022-12-17T23:56:47.457Z,8.38
2022-12-17T23:58:52.936Z,8.13
